Time;durP1;ratioP1;P1;durP2;ratioP2;P2;SDS_P1;SDS_P2;PMS_P1;PMS_P2;Temp;Humidity;BMP_temperature;BMP_pressure;BME280_temperature;BME280_humidity;BME280_pressure;Samples;Min_cycle;Max_cycle;Signal;HPM_P1;HPM_P2
2023/06/06 00:01:22;;;;;;;36.53;24.08;;;;;;;29.16;75.94;100611.91;5110338;27;69628;-44
2023/06/06 00:03:55;;;;;;;32.58;22.67;;;;;;;29.51;74.63;100654.78;5111108;27;66614;-46
2023/06/06 00:06:32;;;;;;;29.13;20.90;;;;;;;29.55;77.01;100661.41;5105518;27;69942;-44
2023/06/06 00:09:09;;;;;;;27.02;20.08;;;;;;;29.44;78.22;100633.19;5107410;27;65700;-43
2023/06/06 00:11:40;;;;;;;37.33;19.47;;;;;;;29.58;78.75;100650.16;5112849;27;69779;-45
2023/06/06 00:14:18;;;;;;;43.53;17.73;;;;;;;29.50;77.31;100645.00;5107479;27;66009;-44
2023/06/06 00:16:51;;;;;;;29.50;18.15;;;;;;;29.68;77.90;100660.53;5110100;27;70950;-44
2023/06/06 00:19:23;;;;;;;31.13;17.23;;;;;;;29.59;77.19;100643.72;5108516;27;66818;-45
2023/06/06 00:21:56;;;;;;;26.75;15.88;;;;;;;29.62;76.54;100635.16;5109030;27;69955;-44
2023/06/06 00:24:27;;;;;;;26.50;15.18;;;;;;;29.75;77.19;100656.72;5108876;27;66244;-43
2023/06/06 00:26:59;;;;;;;24.08;14.93;;;;;;;29.84;75.79;100660.00;5106064;27;70523;-44
2023/06/06 00:29:30;;;;;;;15.63;14.00;;;;;;;29.84;76.65;100687.88;5110085;27;66193;-44
2023/06/06 00:32:01;;;;;;;16.50;13.18;;;;;;;29.88;76.20;100682.03;5111974;27;70284;-43
2023/06/06 00:34:32;;;;;;;15.15;13.13;;;;;;;29.90;76.63;100685.34;5111259;27;64096;-44
2023/06/06 00:37:10;;;;;;;17.42;12.80;;;;;;;29.88;76.04;100676.63;5109384;27;70288;-43
2023/06/06 00:39:42;;;;;;;16.20;12.48;;;;;;;29.96;76.76;100690.72;5117820;27;66407;-43
2023/06/06 00:42:13;;;;;;;12.52;11.20;;;;;;;29.81;74.80;100655.88;5111750;27;69728;-43
2023/06/06 00:44:44;;;;;;;13.60;10.17;;;;;;;29.99;73.50;100679.44;5110055;27;66029;-43
2023/06/06 00:47:16;;;;;;;14.75;9.73;;;;;;;29.73;72.74;100653.44;5108683;27;70277;-42
2023/06/06 00:49:49;;;;;;;10.10;9.10;;;;;;;29.63;72.64;100642.25;5109258;27;65962;-43
2023/06/06 00:52:21;;;;;;;10.32;9.43;;;;;;;30.06;72.59;100701.88;5111903;27;70307;-43
2023/06/06 00:54:52;;;;;;;9.98;9.20;;;;;;;30.06;71.93;100695.63;5107698;27;66292;-42
2023/06/06 00:57:23;;;;;;;12.20;9.07;;;;;;;30.09;72.03;100700.63;5109377;27;69942;-42
2023/06/06 00:59:55;;;;;;;10.55;9.65;;;;;;;30.08;71.23;100711.63;5101915;27;65923;-42
2023/06/06 01:02:28;;;;;;;10.25;9.20;;;;;;;30.10;71.53;100715.78;5102670;27;69130;-44
2023/06/06 01:05:01;;;;;;;9.82;8.80;;;;;;;30.14;71.22;100729.69;5091300;27;65623;-43
2023/06/06 01:07:32;;;;;;;9.27;8.63;;;;;;;30.15;70.78;100732.19;5119303;27;70042;-42
2023/06/06 01:10:06;;;;;;;9.73;8.75;;;;;;;29.24;70.95;100579.25;5109477;27;65569;-43
2023/06/06 01:12:47;;;;;;;9.32;8.45;;;;;;;30.16;70.36;100717.59;5113643;27;70429;-42
2023/06/06 01:15:31;;;;;;;9.20;8.30;;;;;;;30.10;69.84;100710.38;5116071;27;65995;-42
2023/06/06 01:18:04;;;;;;;9.60;8.48;;;;;;;29.28;70.25;100585.91;5111665;27;69768;-43
2023/06/06 01:20:36;;;;;;;9.88;8.88;;;;;;;30.20;70.01;100728.81;5112143;27;66372;-43
2023/06/06 01:23:10;;;;;;;9.05;8.38;;;;;;;30.20;69.70;100724.25;5114920;27;69925;-42
2023/06/06 01:25:44;;;;;;;9.05;8.25;;;;;;;30.23;69.45;100742.78;5114579;27;66665;-43
2023/06/06 01:28:17;;;;;;;8.65;7.95;;;;;;;30.16;69.13;100714.06;5119914;27;70132;-42
2023/06/06 01:30:49;;;;;;;8.45;7.68;;;;;;;30.23;69.14;100723.03;5105014;27;66430;-43
2023/06/06 01:33:39;;;;;;;8.17;7.67;;;;;;;30.24;68.98;100722.78;5105449;27;70041;-43
2023/06/06 01:36:27;;;;;;;8.60;7.75;;;;;;;30.26;68.87;100728.00;5110675;27;66644;-42
2023/06/06 01:39:19;;;;;;;8.43;7.70;;;;;;;30.00;68.84;100699.19;5107998;27;70646;-43
2023/06/06 01:41:57;;;;;;;8.13;7.53;;;;;;;30.22;68.64;100719.47;5106012;27;65453;-43
2023/06/06 01:44:32;;;;;;;8.15;7.50;;;;;;;29.34;68.83;100571.53;5109017;27;70287;-43
2023/06/06 01:47:12;;;;;;;8.32;7.45;;;;;;;30.33;68.79;100727.94;5109362;27;65803;-43
2023/06/06 01:49:44;;;;;;;8.13;7.53;;;;;;;30.34;68.64;100724.16;5101420;27;69250;-43
2023/06/06 01:52:16;;;;;;;8.48;7.80;;;;;;;30.24;68.36;100703.03;5111132;27;66044;-43
2023/06/06 01:54:52;;;;;;;7.85;7.10;;;;;;;30.35;68.44;100721.25;5112814;27;70641;-43
2023/06/06 01:57:25;;;;;;;8.23;7.18;;;;;;;30.33;68.05;100722.50;5107584;27;66384;-44
2023/06/06 02:00:08;;;;;;;7.35;6.85;;;;;;;30.41;68.16;100724.94;5115812;27;70693;-45
2023/06/06 02:02:46;;;;;;;7.45;6.72;;;;;;;30.41;67.85;100730.34;5116570;27;65999;-44
2023/06/06 02:05:21;;;;;;;7.82;7.10;;;;;;;30.39;67.77;100722.44;5113969;27;69564;-45
2023/06/06 02:07:53;;;;;;;7.25;6.75;;;;;;;30.41;67.82;100716.81;5115701;27;66570;-43
2023/06/06 02:10:31;;;;;;;7.28;6.57;;;;;;;30.44;67.67;100716.38;5092814;27;70409;-43
2023/06/06 02:13:02;;;;;;;7.03;6.43;;;;;;;30.46;67.61;100711.59;5106801;27;65359;-41
2023/06/06 02:15:38;;;;;;;6.93;6.30;;;;;;;30.49;67.53;100711.97;5106768;27;69336;-42
2023/06/06 02:18:13;;;;;;;7.10;6.55;;;;;;;30.50;67.42;100710.06;5104747;27;65968;-43
2023/06/06 02:20:47;;;;;;;6.70;6.30;;;;;;;30.52;67.77;100710.69;5103215;27;69735;-43
2023/06/06 02:23:27;;;;;;;6.40;5.95;;;;;;;30.45;67.39;100699.09;5100191;27;66357;-42
2023/06/06 02:25:58;;;;;;;6.15;5.80;;;;;;;30.55;67.45;100704.81;5101274;27;70464;-43
2023/06/06 02:28:30;;;;;;;6.23;5.67;;;;;;;30.58;67.32;100709.78;5100933;27;66227;-42
2023/06/06 02:31:03;;;;;;;6.78;6.18;;;;;;;30.58;67.20;100704.38;5104536;27;70851;-42
2023/06/06 02:33:47;;;;;;;6.70;6.30;;;;;;;30.60;67.06;100713.13;5122216;27;65840;-41
2023/06/06 02:36:20;;;;;;;6.53;5.93;;;;;;;30.65;66.76;100710.56;5108419;27;70846;-43
2023/06/06 02:38:51;;;;;;;6.25;5.65;;;;;;;30.61;66.86;100701.22;5120425;27;67362;-43
2023/06/06 02:41:24;;;;;;;7.43;5.72;;;;;;;30.60;66.96;100696.88;5118042;27;70437;-42
2023/06/06 02:43:55;;;;;;;6.63;6.07;;;;;;;30.60;66.57;100686.03;5119792;27;66656;-42
2023/06/06 02:46:27;;;;;;;5.53;5.10;;;;;;;30.63;66.33;100691.00;5102899;27;70035;-42
2023/06/06 02:48:58;;;;;;;5.72;5.32;;;;;;;30.03;66.62;100587.88;5101622;27;65897;-42
2023/06/06 02:51:30;;;;;;;5.50;5.10;;;;;;;30.78;66.65;100708.78;5101905;27;70996;-43
2023/06/06 02:54:02;;;;;;;5.10;4.80;;;;;;;30.79;66.56;100705.03;5100059;27;65500;-42
2023/06/06 02:56:33;;;;;;;5.20;4.90;;;;;;;30.72;66.41;100686.13;5102405;27;70443;-43
2023/06/06 02:59:06;;;;;;;5.53;5.13;;;;;;;30.78;66.56;100697.94;5114321;27;65201;-42
2023/06/06 03:01:42;;;;;;;6.05;5.53;;;;;;;30.78;66.17;100698.75;5113040;27;69553;-42
2023/06/06 03:04:15;;;;;;;7.60;4.97;;;;;;;30.78;66.60;100698.75;5106827;27;65145;-42
2023/06/06 03:06:48;;;;;;;7.05;5.47;;;;;;;30.87;66.08;100712.88;5108888;27;70048;-42
2023/06/06 03:09:19;;;;;;;5.03;4.63;;;;;;;30.87;66.27;100711.03;5104249;27;65882;-42
2023/06/06 03:11:50;;;;;;;5.32;4.93;;;;;;;30.90;66.28;100718.69;5115143;27;69667;-43
2023/06/06 03:14:22;;;;;;;5.30;4.90;;;;;;;30.94;66.18;100724.47;5117353;27;66438;-42
2023/06/06 03:16:55;;;;;;;4.57;4.20;;;;;;;30.87;66.15;100707.44;5113138;27;70718;-43
2023/06/06 03:19:30;;;;;;;4.72;4.22;;;;;;;30.90;66.33;100707.03;5086887;27;66112;-44
2023/06/06 03:22:01;;;;;;;4.80;4.50;;;;;;;31.01;66.39;100724.41;5110706;27;70573;-45
2023/06/06 03:24:37;;;;;;;5.32;4.93;;;;;;;30.99;66.21;100716.50;5106897;27;66028;-43
2023/06/06 03:27:13;;;;;;;5.20;4.45;;;;;;;31.04;65.87;100708.53;5115968;27;70590;-45
2023/06/06 03:29:44;;;;;;;5.10;4.70;;;;;;;31.02;65.77;100702.50;5070322;27;67459;-43
2023/06/06 03:32:16;;;;;;;4.32;4.03;;;;;;;31.04;65.74;100707.72;5118786;27;69005;-42
2023/06/06 03:34:48;;;;;;;4.85;4.45;;;;;;;31.00;65.78;100701.91;5103312;27;65278;-42
2023/06/06 03:37:19;;;;;;;4.28;3.95;;;;;;;31.07;65.67;100702.66;5115165;27;70571;-43
2023/06/06 03:39:50;;;;;;;4.57;4.18;;;;;;;31.12;65.69;100710.09;5112592;27;66148;-44
2023/06/06 03:42:22;;;;;;;4.25;3.95;;;;;;;31.12;65.74;100702.81;5120472;27;71003;-41
2023/06/06 03:44:53;;;;;;;4.50;4.20;;;;;;;31.14;65.27;100703.41;5122281;27;66162;-42
2023/06/06 03:47:24;;;;;;;4.50;4.20;;;;;;;31.19;65.68;100704.63;5117994;27;69571;-42
2023/06/06 03:49:55;;;;;;;5.15;4.43;;;;;;;31.02;65.43;100671.88;5113283;27;65882;-42
2023/06/06 03:52:27;;;;;;;4.93;4.53;;;;;;;31.19;65.45;100705.44;5120035;27;70220;-41
2023/06/06 03:54:58;;;;;;;4.18;3.88;;;;;;;31.23;65.59;100706.66;5115436;27;66324;-42
2023/06/06 03:57:29;;;;;;;4.20;3.90;;;;;;;31.16;65.51;100685.03;5104402;27;70031;-43
2023/06/06 04:00:00;;;;;;;3.70;3.50;;;;;;;31.20;65.29;100690.81;5119125;27;66002;-46
2023/06/06 04:02:41;;;;;;;4.30;3.65;;;;;;;31.32;65.18;100693.63;5103907;27;70204;-44
2023/06/06 04:05:13;;;;;;;3.92;3.63;;;;;;;31.19;65.31;100672.09;5103243;27;66504;-43
2023/06/06 04:07:45;;;;;;;4.00;3.70;;;;;;;30.84;65.09;100619.38;5105355;27;70032;-43
2023/06/06 04:10:18;;;;;;;4.03;3.67;;;;;;;31.37;65.06;100702.75;5096495;27;65244;-42
2023/06/06 04:12:49;;;;;;;3.88;3.60;;;;;;;31.36;65.02;100694.84;5115841;27;70133;-44
2023/06/06 04:15:21;;;;;;;6.10;3.67;;;;;;;31.34;64.97;100692.34;5111576;27;66224;-42
2023/06/06 04:17:52;;;;;;;4.28;3.88;;;;;;;31.38;64.96;100695.44;5113774;27;70002;-43
2023/06/06 04:20:23;;;;;;;3.75;3.45;;;;;;;31.45;64.65;100701.59;5111216;27;67443;-44
2023/06/06 04:22:56;;;;;;;4.35;3.95;;;;;;;31.47;65.19;100691.34;5106056;27;70243;-42
2023/06/06 04:25:28;;;;;;;3.78;3.47;;;;;;;31.35;64.73;100666.06;5111887;27;66528;-43
2023/06/06 04:28:00;;;;;;;3.85;3.55;;;;;;;31.37;64.93;100658.53;5104246;27;70595;-43
2023/06/06 04:30:32;;;;;;;4.80;3.90;;;;;;;31.54;64.94;100686.69;5110185;27;66402;-45
2023/06/06 04:33:05;;;;;;;3.50;3.30;;;;;;;31.56;64.62;100684.56;5105008;27;69832;-42
2023/06/06 04:35:36;;;;;;;4.20;3.83;;;;;;;31.59;64.53;100681.41;5115430;27;65863;-43
2023/06/06 04:38:07;;;;;;;3.47;3.27;;;;;;;31.59;64.83;100675.97;5115677;27;70198;-42
2023/06/06 04:40:40;;;;;;;3.80;3.50;;;;;;;31.36;64.54;100640.63;5114305;27;66350;-43
2023/06/06 04:43:32;;;;;;;3.60;3.40;;;;;;;31.64;64.37;100669.03;5114202;27;72260;-46
2023/06/06 04:46:04;;;;;;;3.80;3.50;;;;;;;31.67;64.38;100679.41;5115401;27;65931;-42
2023/06/06 04:48:35;;;;;;;4.18;3.80;;;;;;;31.62;64.52;100666.53;5115371;27;69360;-45
2023/06/06 04:51:08;;;;;;;3.70;2.92;;;;;;;31.69;64.16;100671.88;5117746;27;65378;-43
2023/06/06 04:53:42;;;;;;;3.70;3.40;;;;;;;31.73;63.94;100682.03;5107434;27;69904;-44
2023/06/06 04:56:14;;;;;;;3.78;3.47;;;;;;;31.75;64.31;100670.94;5102524;27;66555;-43
2023/06/06 04:58:46;;;;;;;;;;;;;;;31.46;64.81;100673.44;5111101;27;70215;-43
2023/06/06 05:01:18;;;;;;;3.35;3.10;;;;;;;31.73;64.22;100662.22;5103949;27;66278;-42
2023/06/06 05:03:50;;;;;;;3.28;3.08;;;;;;;31.77;64.29;100658.00;5120562;27;70482;-43
2023/06/06 05:06:21;;;;;;;3.10;2.90;;;;;;;31.66;64.26;100623.53;5111027;27;66644;-44
2023/06/06 05:08:54;;;;;;;3.30;3.10;;;;;;;31.80;63.90;100654.81;5108328;27;69076;-42
2023/06/06 05:11:25;;;;;;;2.97;2.78;;;;;;;30.89;63.98;100489.50;5104558;27;65773;-43
2023/06/06 05:13:56;;;;;;;3.10;2.90;;;;;;;31.86;64.16;100634.88;5109470;27;69936;-43
2023/06/06 05:16:27;;;;;;;3.20;3.00;;;;;;;31.81;63.79;100615.78;5117147;27;64769;-44
2023/06/06 05:18:58;;;;;;;2.70;2.50;;;;;;;31.88;63.93;100623.81;5115905;27;69870;-45
2023/06/06 05:21:30;;;;;;;2.97;2.78;;;;;;;31.90;63.92;100616.25;5105155;27;65305;-43
2023/06/06 05:24:01;;;;;;;2.30;2.10;;;;;;;31.88;63.84;100600.22;5109667;27;69990;-42
2023/06/06 05:26:32;;;;;;;2.92;2.72;;;;;;;31.81;63.72;100575.09;5111577;27;66068;-43
2023/06/06 05:29:04;;;;;;;2.83;2.63;;;;;;;31.86;63.96;100586.06;5109723;27;70030;-43
2023/06/06 05:31:37;;;;;;;2.47;2.28;;;;;;;31.97;63.70;100598.84;5094663;27;65996;-44
2023/06/06 05:34:08;;;;;;;2.10;2.00;;;;;;;32.00;63.78;100587.53;5116646;27;69278;-43
2023/06/06 05:36:40;;;;;;;2.50;2.30;;;;;;;31.93;63.69;100570.56;5107305;27;65998;-43
2023/06/06 05:39:10;;;;;;;;;;;;;;;31.74;64.09;100582.53;5115303;27;69169;-42
2023/06/06 05:41:41;;;;;;;2.63;2.42;;;;;;;31.76;63.53;100527.00;5113120;27;66142;-43
2023/06/06 05:44:12;;;;;;;2.40;2.20;;;;;;;32.02;63.52;100576.44;5106814;27;70277;-43
2023/06/06 05:46:44;;;;;;;2.55;2.30;;;;;;;32.02;63.63;100566.41;5113655;27;67766;-43
2023/06/06 05:49:15;;;;;;;2.13;2.00;;;;;;;32.02;63.19;100560.16;5108224;27;70517;-43
2023/06/06 05:51:47;;;;;;;1.93;1.83;;;;;;;32.05;63.43;100557.81;5106697;27;66001;-43
2023/06/06 05:54:18;;;;;;;2.30;2.10;;;;;;;32.10;63.32;100578.00;5114351;27;70329;-44
2023/06/06 05:56:50;;;;;;;2.07;1.83;;;;;;;32.13;63.54;100572.09;5104717;27;66276;-43
2023/06/06 05:59:21;;;;;;;2.10;1.92;;;;;;;32.17;63.35;100575.97;5104403;27;70576;-43
2023/06/06 06:01:52;;;;;;;2.13;1.90;;;;;;;32.20;63.62;100560.03;5107427;27;65682;-44
2023/06/06 06:04:23;;;;;;;1.60;1.50;;;;;;;32.22;63.35;100567.94;5105870;27;70059;-43
2023/06/06 06:06:54;;;;;;;2.05;1.88;;;;;;;32.23;63.21;100562.31;5107489;27;66896;-42
2023/06/06 06:09:25;;;;;;;2.10;1.90;;;;;;;32.15;63.41;100545.53;5109059;27;68526;-43
2023/06/06 06:11:56;;;;;;;2.28;1.75;;;;;;;32.27;63.29;100551.78;5121176;27;66369;-42
2023/06/06 06:14:27;;;;;;;3.92;2.20;;;;;;;32.22;63.18;100554.38;5105595;27;69365;-42
2023/06/06 06:16:58;;;;;;;1.88;1.77;;;;;;;32.26;63.16;100544.69;5105031;27;66738;-44
2023/06/06 06:19:30;;;;;;;2.22;2.00;;;;;;;32.28;62.70;100535.25;5108309;27;69332;-43
2023/06/06 06:22:01;;;;;;;2.22;1.55;;;;;;;32.30;62.91;100526.06;5110236;27;65319;-42
2023/06/06 06:24:32;;;;;;;2.70;1.97;;;;;;;32.44;62.78;100543.72;5109365;27;69654;-44
2023/06/06 06:27:03;;;;;;;3.10;2.00;;;;;;;32.34;62.68;100510.94;5105552;27;66330;-42
2023/06/06 06:29:35;;;;;;;2.72;1.83;;;;;;;32.32;62.56;100494.06;5108605;27;69993;-43
2023/06/06 06:32:06;;;;;;;2.13;1.70;;;;;;;32.53;62.51;100519.78;5112324;27;65552;-43
2023/06/06 06:34:38;;;;;;;1.90;1.70;;;;;;;32.55;62.30;100523.09;5103780;27;68897;-43
2023/06/06 06:37:09;;;;;;;2.45;2.10;;;;;;;32.58;62.32;100517.16;5114674;27;66255;-44
2023/06/06 06:39:41;;;;;;;2.70;1.73;;;;;;;32.54;61.96;100494.25;5115754;27;69902;-44
2023/06/06 06:42:13;;;;;;;2.50;1.90;;;;;;;32.66;62.19;100508.66;5113105;27;66587;-44
2023/06/06 06:44:55;;;;;;;6.43;1.92;;;;;;;32.65;62.16;100496.97;5091269;27;70056;-44
2023/06/06 06:47:26;;;;;;;3.72;1.75;;;;;;;32.74;62.00;100491.97;5111518;27;66216;-43
2023/06/06 06:50:16;;;;;;;2.15;1.70;;;;;;;32.66;61.98;100466.00;5114048;27;70658;-43
2023/06/06 06:53:07;;;;;;;4.07;2.38;;;;;;;32.79;61.79;100478.50;5104978;27;65539;-44
2023/06/06 06:55:41;;;;;;;2.75;1.80;;;;;;;32.86;61.61;100479.16;5108952;27;69419;-47
2023/06/06 06:58:22;;;;;;;2.00;1.75;;;;;;;32.89;61.89;100472.41;5100822;27;66401;-46
2023/06/06 07:00:54;;;;;;;2.03;1.88;;;;;;;32.92;61.56;100461.03;5112346;27;71858;-43
2023/06/06 07:03:25;;;;;;;1.95;1.75;;;;;;;32.83;61.49;100430.75;5103781;27;66180;-43
2023/06/06 07:05:57;;;;;;;2.08;1.88;;;;;;;33.00;61.94;100443.56;5114082;27;69396;-45
2023/06/06 07:08:28;;;;;;;2.30;2.10;;;;;;;33.05;61.00;100441.75;5103292;27;66414;-43
2023/06/06 07:10:59;;;;;;;2.60;1.83;;;;;;;33.07;61.35;100439.63;5099655;27;69877;-43
2023/06/06 07:13:31;;;;;;;1.60;1.50;;;;;;;33.09;61.26;100436.66;5100274;27;66197;-44
2023/06/06 07:16:02;;;;;;;1.95;1.75;;;;;;;32.93;61.38;100417.34;5101699;27;69860;-42
2023/06/06 07:18:33;;;;;;;1.67;1.58;;;;;;;33.06;60.73;100420.84;5102303;27;65794;-43
2023/06/06 07:21:04;;;;;;;1.73;1.58;;;;;;;32.51;60.97;100315.56;5104394;27;67687;-43
2023/06/06 07:23:35;;;;;;;2.40;2.20;;;;;;;33.13;61.07;100416.06;5101707;27;66281;-44
2023/06/06 07:26:08;;;;;;;3.30;2.20;;;;;;;32.92;60.81;100379.53;5107817;27;70201;-43
2023/06/06 07:28:39;;;;;;;2.83;2.13;;;;;;;33.20;60.73;100411.28;5104478;27;66514;-45
2023/06/06 07:31:13;;;;;;;3.28;2.30;;;;;;;33.22;60.86;100409.16;5109767;27;68731;-44
2023/06/06 07:33:44;;;;;;;2.25;2.05;;;;;;;33.05;60.73;100381.16;5115090;27;66851;-44
2023/06/06 07:36:15;;;;;;;4.53;2.13;;;;;;;33.25;60.77;100402.38;5116548;27;70217;-44
2023/06/06 07:38:46;;;;;;;2.50;2.13;;;;;;;33.25;60.60;100397.78;5105955;27;65971;-43
2023/06/06 07:41:17;;;;;;;2.20;1.75;;;;;;;33.24;60.57;100398.84;5108339;27;69834;-44
2023/06/06 07:43:48;;;;;;;2.45;2.00;;;;;;;33.30;60.45;100400.56;5110983;27;65705;-44
2023/06/06 07:46:24;;;;;;;3.53;2.50;;;;;;;33.32;60.58;100409.31;5115041;27;69643;-44
2023/06/06 07:48:59;;;;;;;2.42;2.20;;;;;;;33.31;60.43;100395.97;5114002;27;66275;-44
2023/06/06 07:51:30;;;;;;;2.28;2.08;;;;;;;33.24;60.37;100382.56;5122152;27;69555;-44
2023/06/06 07:54:01;;;;;;;2.65;1.90;;;;;;;33.19;60.40;100366.16;5105197;27;66286;-43
2023/06/06 07:56:36;;;;;;;2.53;2.20;;;;;;;33.29;60.46;100382.63;5099897;27;70210;-43
2023/06/06 07:59:09;;;;;;;2.47;2.13;;;;;;;33.34;60.27;100399.00;5099965;27;66652;-45
2023/06/06 08:01:40;;;;;;;2.50;2.28;;;;;;;33.17;60.28;100357.41;5115784;27;70045;-46
2023/06/06 08:04:11;;;;;;;2.72;2.00;;;;;;;33.21;60.18;100350.44;5088868;27;65083;-43
2023/06/06 08:06:43;;;;;;;2.23;2.10;;;;;;;33.30;60.51;100375.28;5102738;27;69916;-44
2023/06/06 08:09:14;;;;;;;2.67;2.40;;;;;;;33.38;60.58;100392.00;5106338;27;64840;-42
2023/06/06 08:11:45;;;;;;;4.20;2.40;;;;;;;33.41;60.47;100374.38;5107036;27;70191;-43
2023/06/06 08:14:16;;;;;;;2.25;2.10;;;;;;;33.40;60.42;100389.00;5105339;27;65864;-43
2023/06/06 08:16:47;;;;;;;4.65;2.40;;;;;;;33.41;60.37;100384.44;5115557;27;69568;-45
2023/06/06 08:19:18;;;;;;;2.80;2.22;;;;;;;33.33;60.50;100367.44;5108433;27;65344;-43
2023/06/06 08:21:49;;;;;;;2.60;2.40;;;;;;;33.40;60.30;100371.88;5115025;27;69436;-42
2023/06/06 08:24:20;;;;;;;2.77;2.40;;;;;;;33.40;60.41;100378.13;5121965;27;66729;-42
2023/06/06 08:26:51;;;;;;;2.72;2.53;;;;;;;33.43;60.54;100383.06;5116956;27;69483;-43
2023/06/06 08:29:22;;;;;;;3.22;2.65;;;;;;;33.27;60.09;100376.59;5110573;27;65393;-43
2023/06/06 08:31:54;;;;;;;4.43;2.65;;;;;;;33.34;60.41;100374.53;5116265;27;69764;-44
2023/06/06 08:34:26;;;;;;;3.63;2.90;;;;;;;33.07;60.29;100335.50;5113044;27;65263;-44
2023/06/06 08:36:57;;;;;;;;;;;;;;;33.17;60.94;100417.22;5108091;27;70458;-42
2023/06/06 08:39:28;;;;;;;4.45;2.80;;;;;;;33.37;60.42;100422.97;5108223;27;65896;-43
2023/06/06 08:41:59;;;;;;;3.13;2.83;;;;;;;33.24;60.42;100401.56;5112119;27;70194;-42
2023/06/06 08:44:30;;;;;;;;;;;;;;;33.17;60.99;100436.25;5119584;27;66623;-42
2023/06/06 08:47:02;;;;;;;4.00;3.60;;;;;;;32.63;60.62;100308.19;5108483;27;69788;-43
2023/06/06 08:49:37;;;;;;;5.15;3.88;;;;;;;33.26;60.45;100410.28;5113170;27;65493;-43
2023/06/06 08:52:09;;;;;;;4.10;3.78;;;;;;;33.06;60.73;100388.22;5104963;27;70396;-43
2023/06/06 08:54:42;;;;;;;5.78;3.65;;;;;;;33.25;60.42;100419.53;5105584;27;65487;-43
2023/06/06 08:57:15;;;;;;;4.00;3.70;;;;;;;33.43;60.41;100452.94;5115588;27;70568;-43
2023/06/06 08:59:47;;;;;;;4.47;4.00;;;;;;;33.36;60.56;100443.06;5115059;27;65255;-44
2023/06/06 09:02:18;;;;;;;4.50;4.20;;;;;;;33.38;60.60;100457.25;5106182;27;70153;-42
2023/06/06 09:04:51;;;;;;;4.20;3.58;;;;;;;33.25;60.42;100438.53;5106818;27;64952;-43
2023/06/06 09:07:24;;;;;;;7.60;4.32;;;;;;;33.38;60.37;100465.41;5099680;27;69072;-42
2023/06/06 09:09:57;;;;;;;9.73;4.60;;;;;;;33.38;60.58;100468.13;5110449;27;65840;-45
2023/06/06 09:12:28;;;;;;;5.20;3.97;;;;;;;33.32;60.55;100474.56;5104653;27;69998;-43
2023/06/06 09:14:59;;;;;;;3.72;3.53;;;;;;;33.32;60.78;100490.03;5105950;27;66057;-43
2023/06/06 09:17:36;;;;;;;4.40;4.05;;;;;;;32.83;59.94;100410.91;5104524;27;69630;-43
2023/06/06 09:20:09;;;;;;;4.50;4.10;;;;;;;32.53;60.48;100340.59;5112918;27;66766;-42
2023/06/06 09:22:43;;;;;;;6.28;4.50;;;;;;;33.22;60.86;100477.09;5112747;27;69846;-42
2023/06/06 09:25:19;;;;;;;5.95;4.70;;;;;;;32.17;60.80;100288.31;5105483;27;66068;-43
2023/06/06 09:28:01;;;;;;;5.13;4.63;;;;;;;33.21;61.26;100477.31;5108919;27;70256;-43
2023/06/06 09:30:35;;;;;;;4.95;4.55;;;;;;;33.22;61.04;100454.53;5104762;27;66749;-43
2023/06/06 09:33:06;;;;;;;5.53;5.03;;;;;;;33.09;61.42;100442.91;5111038;27;70204;-45
2023/06/06 09:35:43;;;;;;;5.82;4.88;;;;;;;33.06;61.63;100469.75;5108152;27;66006;-47
2023/06/06 09:38:15;;;;;;;4.63;4.30;;;;;;;33.13;61.66;100465.00;5117759;27;69697;-43
2023/06/06 09:40:52;;;;;;;5.85;5.35;;;;;;;32.32;61.55;100340.19;5112275;27;65697;-44
2023/06/06 09:43:25;;;;;;;6.03;5.57;;;;;;;33.09;61.63;100480.94;5121328;27;70321;-43
2023/06/06 09:45:58;;;;;;;5.50;5.00;;;;;;;33.07;62.05;100487.69;5104000;27;65202;-45
2023/06/06 09:48:29;;;;;;;6.05;5.32;;;;;;;33.04;61.81;100493.63;5103110;27;69954;-43
2023/06/06 09:51:00;;;;;;;5.65;4.93;;;;;;;32.89;62.11;100478.66;5104806;27;65254;-42
2023/06/06 09:53:37;;;;;;;5.70;5.25;;;;;;;32.97;62.33;100493.75;5111085;27;70479;-43
2023/06/06 09:56:08;;;;;;;6.90;5.78;;;;;;;32.89;62.30;100486.81;5108157;27;66216;-43
2023/06/06 09:58:42;;;;;;;5.15;4.72;;;;;;;32.94;62.22;100505.09;5113782;27;70103;-45
2023/06/06 10:01:15;;;;;;;5.20;4.70;;;;;;;32.89;62.47;100497.66;5104994;27;66486;-42
2023/06/06 10:03:46;;;;;;;6.35;5.43;;;;;;;32.86;62.22;100487.28;5101743;27;70109;-43
2023/06/06 10:06:17;;;;;;;5.05;4.75;;;;;;;32.84;62.55;100491.31;5108770;27;65996;-43
2023/06/06 10:08:53;;;;;;;4.70;4.35;;;;;;;31.93;62.71;100353.53;5091128;27;70092;-43
2023/06/06 10:11:25;;;;;;;5.65;5.15;;;;;;;32.65;62.77;100474.38;5114209;27;66228;-44
2023/06/06 10:13:56;;;;;;;;;;;;;;;32.42;63.95;100495.09;5108418;27;70186;-43
2023/06/06 10:16:27;;;;;;;6.65;4.50;;;;;;;32.53;62.80;100473.63;5107754;27;67112;-43
2023/06/06 10:19:00;;;;;;;6.13;4.32;;;;;;;31.96;62.89;100385.63;5109033;27;70501;-43
2023/06/06 10:21:32;;;;;;;5.68;5.05;;;;;;;32.70;62.86;100515.22;5110967;27;66661;-42
2023/06/06 10:24:03;;;;;;;4.53;4.32;;;;;;;32.62;62.81;100512.91;5091739;27;69062;-42
2023/06/06 10:26:48;;;;;;;4.85;4.30;;;;;;;32.25;63.53;100462.44;5101485;27;65408;-43
2023/06/06 10:29:43;;;;;;;6.25;5.65;;;;;;;32.34;65.09;100509.03;5107844;27;70475;-43
2023/06/06 10:32:29;;;;;;;8.75;5.05;;;;;;;32.29;66.00;100503.53;5111425;27;65381;-43
2023/06/06 10:35:04;;;;;;;10.80;4.82;;;;;;;32.51;64.54;100505.59;5113079;27;69842;-44
2023/06/06 10:37:38;;;;;;;5.43;4.88;;;;;;;32.47;64.44;100489.81;5108053;27;66496;-43
2023/06/06 10:40:15;;;;;;;9.10;4.55;;;;;;;31.70;64.73;100367.09;5114376;27;70504;-44
2023/06/06 10:42:46;;;;;;;4.90;4.53;;;;;;;32.39;64.63;100475.75;5107509;27;65683;-46
2023/06/06 10:45:36;;;;;;;5.18;4.38;;;;;;;32.52;64.65;100499.13;5102921;27;70795;-45
2023/06/06 10:48:07;;;;;;;5.00;4.60;;;;;;;32.49;64.83;100498.53;5106607;27;65427;-43
2023/06/06 10:50:52;;;;;;;4.47;4.07;;;;;;;31.65;65.61;100375.13;5105520;27;70209;-43
2023/06/06 10:53:25;;;;;;;5.03;4.63;;;;;;;32.46;65.08;100499.03;5103691;27;66029;-43
2023/06/06 10:55:56;;;;;;;5.65;3.80;;;;;;;32.46;65.29;100515.31;5107492;27;70122;-44
2023/06/06 10:58:34;;;;;;;5.43;4.10;;;;;;;31.66;65.60;100384.94;5113168;27;65974;-43
2023/06/06 11:01:06;;;;;;;4.28;3.97;;;;;;;31.02;65.27;100271.81;5104549;27;70452;-44
2023/06/06 11:03:40;;;;;;;4.57;4.18;;;;;;;32.46;65.32;100520.75;5106540;27;66529;-43
2023/06/06 11:06:14;;;;;;;4.30;3.90;;;;;;;31.60;65.40;100371.25;5101612;27;70362;-43
2023/06/06 11:08:57;;;;;;;5.28;4.18;;;;;;;32.32;66.30;100508.47;5103596;27;66177;-44
2023/06/06 11:11:35;;;;;;;4.07;3.78;;;;;;;32.33;65.76;100501.97;5109748;27;70190;-43
2023/06/06 11:14:08;;;;;;;4.32;3.92;;;;;;;31.72;65.58;100394.81;5104215;27;65444;-44
2023/06/06 11:16:39;;;;;;;4.38;4.07;;;;;;;32.38;65.79;100512.13;5108175;27;69008;-46
2023/06/06 11:19:12;;;;;;;;;;;;;;;32.06;67.14;100515.22;5108109;27;65475;-45
2023/06/06 11:21:49;;;;;;;4.50;4.10;;;;;;;31.43;66.10;100370.31;5107731;27;71009;-47
2023/06/06 11:24:20;;;;;;;4.82;4.53;;;;;;;31.99;65.75;100461.09;5108609;27;66832;-44
2023/06/06 11:26:51;;;;;;;5.93;5.33;;;;;;;31.68;67.46;100431.59;5106884;27;69815;-45
2023/06/06 11:29:22;;;;;;;;;;;;;;;31.93;69.04;100524.44;5108252;27;66394;-44
2023/06/06 11:31:53;;;;;;;21.38;7.63;;;;;;;32.02;69.23;100516.75;5108238;27;69993;-46
2023/06/06 11:34:25;;;;;;;10.27;7.15;;;;;;;32.00;69.66;100522.41;5106571;27;66218;-42
2023/06/06 11:36:56;;;;;;;16.15;7.03;;;;;;;31.99;69.85;100520.78;5105484;27;70318;-41
2023/06/06 11:39:28;;;;;;;9.82;7.47;;;;;;;31.99;70.29;100537.06;5113936;27;66186;-42
2023/06/06 11:42:00;;;;;;;19.33;7.90;;;;;;;31.77;71.01;100516.97;5104746;27;68999;-41
2023/06/06 11:44:35;;;;;;;15.23;8.60;;;;;;;31.89;70.90;100544.09;5099704;27;66409;-41
2023/06/06 11:47:08;;;;;;;12.80;7.05;;;;;;;31.91;70.99;100553.69;5105720;27;69908;-42
2023/06/06 11:49:45;;;;;;;19.02;7.50;;;;;;;31.55;71.79;100509.41;5103350;27;66273;-42
2023/06/06 11:52:17;;;;;;;7.53;6.18;;;;;;;31.92;70.01;100558.03;5100335;27;69688;-41